Aviation Digital Data Service (ADDS)

Output produced by METARs form (0141 UTC 04 July 2015)
found at http://www.aviationweather.gov/adds/metars/
 
KDOV 040058Z AUTO 13007KT 10SM OVC075 22/21 A2994 RMK AO2 SLP142 T02220205 VISNO RWY19 CHINO RWY19 $
TAF KDOV 0400/0506 11009KT 9999 SCT080 BKN200 QNH2984INS 
     BECMG 0409/0410 04012KT 4800 -RA BR OVC010 QNH2980INS 
     BECMG 0415/0416 02012G18KT 9999 NSW SCT010 BKN020 OVC040 QNH2985INS 
     BECMG 0420/0421 VRB06KT 9999 FEW010 SCT030 BKN080 QNH2992INS TX26/0414Z TN19/0500Z